sensor_id;sensor_type;location;lat;lon;timestamp;pressure;altitude;pressure_sealevel;temperature;humidity
10706;BME280;5404;42.656;23.336;2023-05-21T00:02:03;94824.50;;;14.46;100.00
10706;BME280;5404;42.656;23.336;2023-05-21T00:04:29;94831.28;;;14.43;100.00
10706;BME280;5404;42.656;23.336;2023-05-21T00:06:58;94821.50;;;14.39;100.00
10706;BME280;5404;42.656;23.336;2023-05-21T00:09:24;94823.72;;;14.37;100.00
10706;BME280;5404;42.656;23.336;2023-05-21T00:11:49;94816.00;;;14.35;100.00
10706;BME280;5404;42.656;23.336;2023-05-21T00:14:15;94814.13;;;14.36;100.00
10706;BME280;5404;42.656;23.336;2023-05-21T00:16:40;94810.16;;;14.33;100.00
10706;BME280;5404;42.656;23.336;2023-05-21T00:19:06;94812.66;;;14.21;100.00
10706;BME280;5404;42.656;23.336;2023-05-21T00:21:32;94814.53;;;14.21;100.00
10706;BME280;5404;42.656;23.336;2023-05-21T00:23:57;94812.50;;;14.09;100.00
10706;BME280;5404;42.656;23.336;2023-05-21T00:26:23;94806.84;;;14.02;100.00
10706;BME280;5404;42.656;23.336;2023-05-21T00:28:49;94813.47;;;13.96;100.00
10706;BME280;5404;42.656;23.336;2023-05-21T00:31:14;94809.03;;;13.91;100.00
10706;BME280;5404;42.656;23.336;2023-05-21T00:33:41;94810.94;;;13.82;100.00
10706;BME280;5404;42.656;23.336;2023-05-21T00:36:07;94811.38;;;13.76;100.00
10706;BME280;5404;42.656;23.336;2023-05-21T00:38:34;94813.91;;;13.72;100.00
10706;BME280;5404;42.656;23.336;2023-05-21T00:41:01;94805.41;;;13.70;100.00
10706;BME280;5404;42.656;23.336;2023-05-21T00:43:27;94811.19;;;13.64;100.00
10706;BME280;5404;42.656;23.336;2023-05-21T00:45:53;94813.72;;;13.60;100.00
10706;BME280;5404;42.656;23.336;2023-05-21T00:48:21;94813.41;;;13.53;100.00
10706;BME280;5404;42.656;23.336;2023-05-21T00:50:48;94817.63;;;13.46;100.00
10706;BME280;5404;42.656;23.336;2023-05-21T00:53:14;94816.34;;;13.43;100.00
10706;BME280;5404;42.656;23.336;2023-05-21T00:55:42;94819.19;;;13.47;100.00
10706;BME280;5404;42.656;23.336;2023-05-21T00:58:08;94820.81;;;13.48;100.00
10706;BME280;5404;42.656;23.336;2023-05-21T01:00:34;94820.81;;;13.48;100.00
10706;BME280;5404;42.656;23.336;2023-05-21T01:03:00;94816.38;;;13.52;100.00
10706;BME280;5404;42.656;23.336;2023-05-21T01:05:29;94813.88;;;13.55;100.00
10706;BME280;5404;42.656;23.336;2023-05-21T01:07:56;94812.00;;;13.56;100.00
10706;BME280;5404;42.656;23.336;2023-05-21T01:10:22;94803.50;;;13.62;100.00
10706;BME280;5404;42.656;23.336;2023-05-21T01:12:51;94809.97;;;13.61;100.00
10706;BME280;5404;42.656;23.336;2023-05-21T01:15:17;94807.13;;;13.66;100.00
10706;BME280;5404;42.656;23.336;2023-05-21T01:17:43;94794.69;;;13.62;100.00
10706;BME280;5404;42.656;23.336;2023-05-21T01:20:14;94802.25;;;13.68;100.00
10706;BME280;5404;42.656;23.336;2023-05-21T01:22:57;94799.25;;;13.70;100.00
10706;BME280;5404;42.656;23.336;2023-05-21T01:25:23;94805.41;;;13.70;100.00
10706;BME280;5404;42.656;23.336;2023-05-21T01:27:50;94799.88;;;13.67;100.00
10706;BME280;5404;42.656;23.336;2023-05-21T01:30:17;94802.09;;;13.73;100.00
10706;BME280;5404;42.656;23.336;2023-05-21T01:33:16;94790.91;;;13.80;100.00
10706;BME280;5404;42.656;23.336;2023-05-21T01:38:32;94783.69;;;13.80;100.00
10706;BME280;5404;42.656;23.336;2023-05-21T01:41:03;94792.03;;;13.79;100.00
10706;BME280;5404;42.656;23.336;2023-05-21T01:43:33;94793.44;;;13.76;100.00
10706;BME280;5404;42.656;23.336;2023-05-21T01:45:59;94785.56;;;13.80;100.00
10706;BME280;5404;42.656;23.336;2023-05-21T01:48:29;94788.56;;;13.78;100.00
10706;BME280;5404;42.656;23.336;2023-05-21T01:51:01;94797.38;;;13.79;100.00
10706;BME280;5404;42.656;23.336;2023-05-21T01:53:26;94787.13;;;13.72;100.00
10706;BME280;5404;42.656;23.336;2023-05-21T01:55:52;94788.88;;;13.77;100.00
10706;BME280;5404;42.656;23.336;2023-05-21T01:58:19;94790.59;;;13.73;100.00
10706;BME280;5404;42.656;23.336;2023-05-21T02:00:45;94784.31;;;13.77;100.00
10706;BME280;5404;42.656;23.336;2023-05-21T02:03:12;94781.00;;;13.80;100.00
10706;BME280;5404;42.656;23.336;2023-05-21T02:05:39;94787.00;;;13.69;100.00
10706;BME280;5404;42.656;23.336;2023-05-21T02:08:04;94768.38;;;13.64;100.00
10706;BME280;5404;42.656;23.336;2023-05-21T02:10:32;94780.50;;;13.70;100.00
10706;BME280;5404;42.656;23.336;2023-05-21T02:12:58;94781.91;;;13.67;100.00
10706;BME280;5404;42.656;23.336;2023-05-21T02:15:23;94779.72;;;13.61;100.00
10706;BME280;5404;42.656;23.336;2023-05-21T02:17:50;94762.66;;;13.40;100.00
10706;BME280;5404;42.656;23.336;2023-05-21T02:20:15;94776.53;;;13.42;100.00
10706;BME280;5404;42.656;23.336;2023-05-21T02:22:46;94745.50;;;13.24;100.00
10706;BME280;5404;42.656;23.336;2023-05-21T02:25:14;94779.34;;;13.37;100.00
10706;BME280;5404;42.656;23.336;2023-05-21T02:27:41;94771.00;;;13.38;100.00
10706;BME280;5404;42.656;23.336;2023-05-21T02:30:09;94769.44;;;13.37;100.00
10706;BME280;5404;42.656;23.336;2023-05-21T02:32:36;94773.25;;;13.36;100.00
10706;BME280;5404;42.656;23.336;2023-05-21T02:35:02;94778.09;;;13.34;100.00
10706;BME280;5404;42.656;23.336;2023-05-21T02:37:29;94774.63;;;13.34;100.00
10706;BME280;5404;42.656;23.336;2023-05-21T02:39:58;94772.09;;;13.29;100.00
10706;BME280;5404;42.656;23.336;2023-05-21T02:42:24;94775.09;;;13.27;100.00
10706;BME280;5404;42.656;23.336;2023-05-21T02:44:50;94769.09;;;13.22;100.00
10706;BME280;5404;42.656;23.336;2023-05-21T02:47:17;94759.34;;;13.17;100.00
10706;BME280;5404;42.656;23.336;2023-05-21T02:49:42;94771.44;;;13.15;100.00
10706;BME280;5404;42.656;23.336;2023-05-21T02:52:08;94764.84;;;13.12;100.00
10706;BME280;5404;42.656;23.336;2023-05-21T02:54:33;94766.41;;;13.13;100.00
10706;BME280;5404;42.656;23.336;2023-05-21T02:56:58;94763.38;;;13.06;100.00
10706;BME280;5404;42.656;23.336;2023-05-21T02:59:24;94763.69;;;13.05;100.00
10706;BME280;5404;42.656;23.336;2023-05-21T03:01:49;94758.84;;;13.07;100.00
10706;BME280;5404;42.656;23.336;2023-05-21T03:04:15;94765.44;;;13.09;100.00
10706;BME280;5404;42.656;23.336;2023-05-21T03:06:48;94768.75;;;13.15;100.00
10706;BME280;5404;42.656;23.336;2023-05-21T03:09:16;94771.75;;;13.13;100.00
10706;BME280;5404;42.656;23.336;2023-05-21T03:11:42;94776.31;;;13.13;100.00
10706;BME280;5404;42.656;23.336;2023-05-21T03:14:07;94775.53;;;13.12;100.00
10706;BME280;5404;42.656;23.336;2023-05-21T03:16:34;94765.78;;;13.16;100.00
10706;BME280;5404;42.656;23.336;2023-05-21T03:18:59;94766.88;;;13.15;100.00
10706;BME280;5404;42.656;23.336;2023-05-21T03:21:26;94774.44;;;13.13;100.00
10706;BME280;5404;42.656;23.336;2023-05-21T03:23:54;94774.59;;;13.17;100.00
10706;BME280;5404;42.656;23.336;2023-05-21T03:26:26;94778.53;;;13.19;100.00
10706;BME280;5404;42.656;23.336;2023-05-21T03:28:54;94781.69;;;13.21;100.00
10706;BME280;5404;42.656;23.336;2023-05-21T03:31:20;94783.88;;;13.19;100.00
10706;BME280;5404;42.656;23.336;2023-05-21T03:33:46;94782.16;;;13.23;100.00
10706;BME280;5404;42.656;23.336;2023-05-21T03:36:11;94778.69;;;13.23;100.00
10706;BME280;5404;42.656;23.336;2023-05-21T03:38:36;94776.97;;;13.27;100.00
10706;BME280;5404;42.656;23.336;2023-05-21T03:41:02;94780.16;;;13.37;100.00
10706;BME280;5404;42.656;23.336;2023-05-21T03:43:27;94784.88;;;13.40;100.00
10706;BME280;5404;42.656;23.336;2023-05-21T03:45:54;94784.56;;;13.50;100.00
10706;BME280;5404;42.656;23.336;2023-05-21T03:48:19;94785.84;;;13.53;100.00
10706;BME280;5404;42.656;23.336;2023-05-21T03:50:45;94784.75;;;13.54;100.00
10706;BME280;5404;42.656;23.336;2023-05-21T03:53:10;94785.84;;;13.53;100.00
10706;BME280;5404;42.656;23.336;2023-05-21T03:55:36;94777.03;;;13.61;100.00
10706;BME280;5404;42.656;23.336;2023-05-21T03:58:02;94782.22;;;13.66;100.00
10706;BME280;5404;42.656;23.336;2023-05-21T04:00:27;94785.56;;;13.71;100.00
10706;BME280;5404;42.656;23.336;2023-05-21T04:02:53;94785.56;;;13.71;100.00
10706;BME280;5404;42.656;23.336;2023-05-21T04:05:18;94762.25;;;13.63;100.00
10706;BME280;5404;42.656;23.336;2023-05-21T04:07:44;94776.88;;;13.66;100.00
10706;BME280;5404;42.656;23.336;2023-05-21T04:10:11;94775.00;;;13.66;100.00
10706;BME280;5404;42.656;23.336;2023-05-21T04:12:36;94759.25;;;13.65;100.00
10706;BME280;5404;42.656;23.336;2023-05-21T04:15:02;94772.97;;;13.63;100.00
10706;BME280;5404;42.656;23.336;2023-05-21T04:17:27;94774.69;;;13.59;100.00
10706;BME280;5404;42.656;23.336;2023-05-21T04:19:53;94767.94;;;13.70;100.00
10706;BME280;5404;42.656;23.336;2023-05-21T04:22:20;94784.75;;;13.79;100.00
10706;BME280;5404;42.656;23.336;2023-05-21T04:24:47;94769.50;;;13.88;100.00
10706;BME280;5404;42.656;23.336;2023-05-21T04:27:13;94760.06;;;13.82;100.00
10706;BME280;5404;42.656;23.336;2023-05-21T04:29:40;94772.00;;;13.85;100.00
10706;BME280;5404;42.656;23.336;2023-05-21T04:32:07;94771.69;;;13.86;100.00
10706;BME280;5404;42.656;23.336;2023-05-21T04:34:33;64459.16;;;-141.35;100.00
10706;BME280;5404;42.656;23.336;2023-05-21T04:36:59;94772.50;;;13.87;100.00
10706;BME280;5404;42.656;23.336;2023-05-21T04:39:26;94759.72;;;13.92;100.00
10706;BME280;5404;42.656;23.336;2023-05-21T04:41:53;94763.19;;;14.01;100.00
10706;BME280;5404;42.656;23.336;2023-05-21T04:44:20;94772.78;;;14.11;100.00
10706;BME280;5404;42.656;23.336;2023-05-21T04:46:46;94774.69;;;14.28;100.00
10706;BME280;5404;42.656;23.336;2023-05-21T04:49:13;94772.16;;;14.40;100.00
10706;BME280;5404;42.656;23.336;2023-05-21T04:51:39;94773.88;;;14.53;100.00
10706;BME280;5404;42.656;23.336;2023-05-21T04:54:05;94772.88;;;14.66;100.00
10706;BME280;5404;42.656;23.336;2023-05-21T04:56:31;94769.03;;;14.84;100.00
10706;BME280;5404;42.656;23.336;2023-05-21T04:58:56;94761.28;;;14.91;100.00
10706;BME280;5404;42.656;23.336;2023-05-21T05:01:23;94768.75;;;15.14;100.00
10706;BME280;5404;42.656;23.336;2023-05-21T05:03:49;94756.84;;;15.24;100.00
10706;BME280;5404;42.656;23.336;2023-05-21T05:06:16;94741.03;;;15.31;100.00
10706;BME280;5404;42.656;23.336;2023-05-21T05:08:41;94735.31;;;15.41;100.00
10706;BME280;5404;42.656;23.336;2023-05-21T05:11:07;94727.47;;;15.57;100.00
10706;BME280;5404;42.656;23.336;2023-05-21T05:13:34;94722.16;;;15.69;100.00
10706;BME280;5404;42.656;23.336;2023-05-21T05:15:59;94725.81;;;15.85;100.00
10706;BME280;5404;42.656;23.336;2023-05-21T05:18:25;94724.56;;;16.03;100.00
10706;BME280;5404;42.656;23.336;2023-05-21T05:20:52;94712.88;;;16.19;100.00
10706;BME280;5404;42.656;23.336;2023-05-21T05:23:17;94710.56;;;16.30;100.00
10706;BME280;5404;42.656;23.336;2023-05-21T05:25:43;94712.69;;;16.37;100.00
10706;BME280;5404;42.656;23.336;2023-05-21T05:28:08;94710.34;;;16.35;100.00
10706;BME280;5404;42.656;23.336;2023-05-21T05:30:34;94692.38;;;16.27;100.00
10706;BME280;5404;42.656;23.336;2023-05-21T05:33:00;94676.06;;;16.32;100.00
10706;BME280;5404;42.656;23.336;2023-05-21T05:35:25;94667.28;;;16.56;100.00
10706;BME280;5404;42.656;23.336;2023-05-21T05:37:51;94664.16;;;16.90;100.00
10706;BME280;5404;42.656;23.336;2023-05-21T05:40:16;94649.31;;;17.08;100.00
10706;BME280;5404;42.656;23.336;2023-05-21T05:42:42;94637.28;;;17.29;100.00
10706;BME280;5404;42.656;23.336;2023-05-21T05:45:07;94640.97;;;17.49;100.00
10706;BME280;5404;42.656;23.336;2023-05-21T05:47:33;94647.44;;;17.60;100.00
10706;BME280;5404;42.656;23.336;2023-05-21T05:49:58;94650.34;;;17.67;100.00
10706;BME280;5404;42.656;23.336;2023-05-21T05:52:24;94648.91;;;17.70;100.00
10706;BME280;5404;42.656;23.336;2023-05-21T05:54:49;94643.47;;;17.82;100.00
10706;BME280;5404;42.656;23.336;2023-05-21T05:57:15;94641.38;;;17.91;100.00
10706;BME280;5404;42.656;23.336;2023-05-21T05:59:40;94639.16;;;18.08;100.00
10706;BME280;5404;42.656;23.336;2023-05-21T06:02:06;94631.56;;;18.26;100.00
10706;BME280;5404;42.656;23.336;2023-05-21T06:04:31;94625.94;;;18.46;100.00
10706;BME280;5404;42.656;23.336;2023-05-21T06:06:56;94616.53;;;18.56;100.00
10706;BME280;5404;42.656;23.336;2023-05-21T06:09:23;94609.47;;;18.83;100.00
10706;BME280;5404;42.656;23.336;2023-05-21T06:11:49;94596.41;;;18.85;100.00
10706;BME280;5404;42.656;23.336;2023-05-21T06:14:14;94601.97;;;18.92;100.00
10706;BME280;5404;42.656;23.336;2023-05-21T06:16:41;94601.25;;;18.95;100.00
10706;BME280;5404;42.656;23.336;2023-05-21T06:19:07;94598.13;;;18.93;100.00
10706;BME280;5404;42.656;23.336;2023-05-21T06:21:33;94589.59;;;18.91;100.00
10706;BME280;5404;42.656;23.336;2023-05-21T06:23:58;94595.25;;;18.86;100.00
10706;BME280;5404;42.656;23.336;2023-05-21T06:26:24;94596.44;;;18.69;100.00
10706;BME280;5404;42.656;23.336;2023-05-21T06:28:50;94587.34;;;18.30;100.00
10706;BME280;5404;42.656;23.336;2023-05-21T06:31:15;94592.81;;;18.34;100.00
10706;BME280;5404;42.656;23.336;2023-05-21T06:33:41;94583.31;;;18.52;100.00
10706;BME280;5404;42.656;23.336;2023-05-21T06:36:06;94586.41;;;18.70;100.00
10706;BME280;5404;42.656;23.336;2023-05-21T06:38:32;94582.94;;;18.69;100.00
10706;BME280;5404;42.656;23.336;2023-05-21T06:40:57;94581.97;;;18.62;100.00
10706;BME280;5404;42.656;23.336;2023-05-21T06:43:23;94581.34;;;18.68;100.00
10706;BME280;5404;42.656;23.336;2023-05-21T06:45:49;94579.06;;;18.86;100.00
10706;BME280;5404;42.656;23.336;2023-05-21T06:48:14;94573.34;;;18.72;100.00
10706;BME280;5404;42.656;23.336;2023-05-21T06:50:41;94574.03;;;18.69;100.00
10706;BME280;5404;42.656;23.336;2023-05-21T06:53:07;94580.16;;;18.66;100.00
10706;BME280;5404;42.656;23.336;2023-05-21T06:55:32;94573.94;;;18.81;100.00
10706;BME280;5404;42.656;23.336;2023-05-21T06:57:59;94568.75;;;19.07;100.00
10706;BME280;5404;42.656;23.336;2023-05-21T07:00:26;94572.16;;;19.23;100.00
10706;BME280;5404;42.656;23.336;2023-05-21T07:02:51;94567.44;;;19.01;100.00
10706;BME280;5404;42.656;23.336;2023-05-21T07:05:17;94566.94;;;19.30;100.00
10706;BME280;5404;42.656;23.336;2023-05-21T07:07:43;94565.84;;;19.50;100.00
10706;BME280;5404;42.656;23.336;2023-05-21T07:10:08;94570.72;;;19.44;100.00
10706;BME280;5404;42.656;23.336;2023-05-21T07:12:34;94558.84;;;19.49;100.00
10706;BME280;5404;42.656;23.336;2023-05-21T07:15:00;94559.56;;;19.46;100.00
10706;BME280;5404;42.656;23.336;2023-05-21T07:17:25;94567.16;;;19.79;100.00
10706;BME280;5404;42.656;23.336;2023-05-21T07:19:51;94563.50;;;19.90;100.00
10706;BME280;5404;42.656;23.336;2023-05-21T07:22:16;94574.34;;;19.71;100.00
10706;BME280;5404;42.656;23.336;2023-05-21T07:24:42;94566.78;;;19.99;100.00
10706;BME280;5404;42.656;23.336;2023-05-21T07:27:07;94571.81;;;20.20;100.00
10706;BME280;5404;42.656;23.336;2023-05-21T07:29:32;94564.19;;;20.25;100.00
10706;BME280;5404;42.656;23.336;2023-05-21T07:31:58;94568.38;;;20.23;100.00
10706;BME280;5404;42.656;23.336;2023-05-21T07:34:24;94573.31;;;20.17;100.00
10706;BME280;5404;42.656;23.336;2023-05-21T07:36:51;94573.53;;;20.09;100.00
10706;BME280;5404;42.656;23.336;2023-05-21T07:39:16;94562.91;;;20.19;100.00
10706;BME280;5404;42.656;23.336;2023-05-21T07:41:42;94564.66;;;20.31;100.00
10706;BME280;5404;42.656;23.336;2023-05-21T07:44:08;94573.56;;;20.31;100.00
10706;BME280;5404;42.656;23.336;2023-05-21T07:46:34;94570.47;;;20.10;100.00
10706;BME280;5404;42.656;23.336;2023-05-21T07:48:59;94568.75;;;20.44;100.00
10706;BME280;5404;42.656;23.336;2023-05-21T07:51:26;94563.22;;;20.37;100.00
10706;BME280;5404;42.656;23.336;2023-05-21T07:53:52;94561.41;;;20.67;100.00
10706;BME280;5404;42.656;23.336;2023-05-21T07:56:17;94563.75;;;20.68;100.00
10706;BME280;5404;42.656;23.336;2023-05-21T07:58:44;94558.88;;;20.81;100.00
10706;BME280;5404;42.656;23.336;2023-05-21T08:01:10;94561.84;;;20.72;100.00
10706;BME280;5404;42.656;23.336;2023-05-21T08:03:36;94566.03;;;20.93;100.00
10706;BME280;5404;42.656;23.336;2023-05-21T08:06:02;94557.88;;;21.15;100.00
10706;BME280;5404;42.656;23.336;2023-05-21T08:08:28;94563.38;;;21.52;100.00
10706;BME280;5404;42.656;23.336;2023-05-21T08:10:54;94565.72;;;21.83;100.00
10706;BME280;5404;42.656;23.336;2023-05-21T08:13:20;94566.97;;;21.89;100.00
10706;BME280;5404;42.656;23.336;2023-05-21T08:15:46;94568.56;;;21.93;100.00
10706;BME280;5404;42.656;23.336;2023-05-21T08:18:12;94574.78;;;21.94;100.00
10706;BME280;5404;42.656;23.336;2023-05-21T08:20:37;94563.47;;;21.88;99.59
10706;BME280;5404;42.656;23.336;2023-05-21T08:23:03;94555.50;;;21.73;100.00
10706;BME280;5404;42.656;23.336;2023-05-21T08:25:28;94554.66;;;21.69;100.00
10706;BME280;5404;42.656;23.336;2023-05-21T08:27:54;94550.66;;;21.56;100.00
10706;BME280;5404;42.656;23.336;2023-05-21T08:30:20;94548.88;;;21.37;100.00
10706;BME280;5404;42.656;23.336;2023-05-21T08:32:47;94545.19;;;21.23;100.00
10706;BME280;5404;42.656;23.336;2023-05-21T08:35:12;94568.66;;;21.12;100.00
10706;BME280;5404;42.656;23.336;2023-05-21T08:37:38;94569.31;;;21.05;100.00
10706;BME280;5404;42.656;23.336;2023-05-21T08:40:04;94554.47;;;20.96;100.00
10706;BME280;5404;42.656;23.336;2023-05-21T08:44:58;94525.19;;;21.01;100.00
10706;BME280;5404;42.656;23.336;2023-05-21T08:47:25;94559.88;;;21.48;100.00
10706;BME280;5404;42.656;23.336;2023-05-21T08:49:54;94565.19;;;21.70;100.00
10706;BME280;5404;42.656;23.336;2023-05-21T08:52:20;94564.22;;;21.85;99.57
10706;BME280;5404;42.656;23.336;2023-05-21T08:54:47;94557.50;;;22.13;97.58
10706;BME280;5404;42.656;23.336;2023-05-21T08:57:16;94555.72;;;22.31;96.85
10706;BME280;5404;42.656;23.336;2023-05-21T08:59:43;94563.84;;;22.24;97.93
10706;BME280;5404;42.656;23.336;2023-05-21T09:02:12;94565.13;;;22.00;97.65
10706;BME280;5404;42.656;23.336;2023-05-21T09:04:39;94558.19;;;21.69;100.00
10706;BME280;5404;42.656;23.336;2023-05-21T09:07:08;94551.78;;;21.84;100.00
10706;BME280;5404;42.656;23.336;2023-05-21T09:09:40;94563.50;;;21.92;100.00
10706;BME280;5404;42.656;23.336;2023-05-21T09:12:09;94559.63;;;21.93;99.67
10706;BME280;5404;42.656;23.336;2023-05-21T09:14:36;94559.78;;;22.07;100.00
10706;BME280;5404;42.656;23.336;2023-05-21T09:17:01;94557.63;;;22.23;100.00
10706;BME280;5404;42.656;23.336;2023-05-21T09:19:27;94560.28;;;22.56;99.61
10706;BME280;5404;42.656;23.336;2023-05-21T09:22:00;94556.47;;;23.22;99.18
10706;BME280;5404;42.656;23.336;2023-05-21T09:24:29;94562.38;;;22.77;98.84
10706;BME280;5404;42.656;23.336;2023-05-21T09:26:59;94552.38;;;23.56;99.90
10706;BME280;5404;42.656;23.336;2023-05-21T09:29:25;94561.69;;;23.52;83.07
10706;BME280;5404;42.656;23.336;2023-05-21T09:31:51;94564.97;;;23.85;80.34
10706;BME280;5404;42.656;23.336;2023-05-21T09:34:18;94564.28;;;24.16;76.26
10706;BME280;5404;42.656;23.336;2023-05-21T09:36:47;94569.38;;;25.27;65.71
10706;BME280;5404;42.656;23.336;2023-05-21T09:39:26;94552.53;;;25.74;60.58
10706;BME280;5404;42.656;23.336;2023-05-21T09:41:52;94561.00;;;25.94;58.32
10706;BME280;5404;42.656;23.336;2023-05-21T09:44:17;94555.75;;;24.36;65.10
10706;BME280;5404;42.656;23.336;2023-05-21T09:46:42;94565.16;;;23.45;66.60
10706;BME280;5404;42.656;23.336;2023-05-21T09:49:24;94554.69;;;23.47;71.18
10706;BME280;5404;42.656;23.336;2023-05-21T09:51:56;94548.50;;;23.54;70.46
10706;BME280;5404;42.656;23.336;2023-05-21T09:54:23;94550.53;;;23.74;69.23
10706;BME280;5404;42.656;23.336;2023-05-21T09:56:50;94545.31;;;23.41;69.09
10706;BME280;5404;42.656;23.336;2023-05-21T09:59:17;94554.03;;;23.06;73.34
10706;BME280;5404;42.656;23.336;2023-05-21T10:01:43;94538.78;;;23.56;72.26
10706;BME280;5404;42.656;23.336;2023-05-21T10:04:10;94546.81;;;24.28;74.31
10706;BME280;5404;42.656;23.336;2023-05-21T10:06:42;94545.97;;;25.54;67.17
10706;BME280;5404;42.656;23.336;2023-05-21T10:09:14;94537.19;;;26.63;55.97
10706;BME280;5404;42.656;23.336;2023-05-21T10:11:43;94542.03;;;27.37;55.09
10706;BME280;5404;42.656;23.336;2023-05-21T10:14:15;94544.09;;;26.82;52.95
10706;BME280;5404;42.656;23.336;2023-05-21T10:16:41;94547.03;;;27.05;53.15
10706;BME280;5404;42.656;23.336;2023-05-21T10:19:07;94540.09;;;25.63;58.35
10706;BME280;5404;42.656;23.336;2023-05-21T10:21:36;94541.72;;;25.25;58.05
10706;BME280;5404;42.656;23.336;2023-05-21T10:24:07;94538.69;;;24.91;58.08
10706;BME280;5404;42.656;23.336;2023-05-21T10:26:32;94533.66;;;23.34;65.20
10706;BME280;5404;42.656;23.336;2023-05-21T10:28:58;94531.59;;;23.24;67.27
10706;BME280;5404;42.656;23.336;2023-05-21T10:31:25;94528.81;;;23.92;65.04
10706;BME280;5404;42.656;23.336;2023-05-21T10:33:55;94537.09;;;24.48;63.87
10706;BME280;5404;42.656;23.336;2023-05-21T10:36:20;94537.50;;;24.57;64.45
10706;BME280;5404;42.656;23.336;2023-05-21T10:38:48;94519.97;;;24.51;63.36
10706;BME280;5404;42.656;23.336;2023-05-21T10:41:17;94519.19;;;24.23;65.50
10706;BME280;5404;42.656;23.336;2023-05-21T10:44:00;94521.53;;;24.42;65.21
10706;BME280;5404;42.656;23.336;2023-05-21T10:54:59;94515.91;;;25.65;60.43
10706;BME280;5404;42.656;23.336;2023-05-21T10:59:58;94521.47;;;24.03;70.43
10706;BME280;5404;42.656;23.336;2023-05-21T11:02:25;94524.22;;;23.21;76.80
10706;BME280;5404;42.656;23.336;2023-05-21T11:04:58;94524.25;;;23.24;78.61
10706;BME280;5404;42.656;23.336;2023-05-21T11:07:55;94541.25;;;23.10;81.07
10706;BME280;5404;42.656;23.336;2023-05-21T11:10:37;94526.69;;;22.78;83.18
10706;BME280;5404;42.656;23.336;2023-05-21T11:13:26;94512.84;;;22.47;83.54
10706;BME280;5404;42.656;23.336;2023-05-21T11:21:14;94512.47;;;22.05;87.70
10706;BME280;5404;42.656;23.336;2023-05-21T11:23:58;94513.72;;;22.14;89.54
10706;BME280;5404;42.656;23.336;2023-05-21T11:29:19;94498.34;;;22.79;81.98
10706;BME280;5404;42.656;23.336;2023-05-21T11:31:46;94501.81;;;22.73;82.20
10706;BME280;5404;42.656;23.336;2023-05-21T11:34:20;94493.81;;;22.47;83.92
10706;BME280;5404;42.656;23.336;2023-05-21T11:39:41;94491.22;;;22.14;86.64
10706;BME280;5404;42.656;23.336;2023-05-21T11:42:06;94500.69;;;21.90;87.77
10706;BME280;5404;42.656;23.336;2023-05-21T11:44:52;94495.44;;;21.71;89.86
10706;BME280;5404;42.656;23.336;2023-05-21T11:47:18;94499.94;;;21.56;92.90
10706;BME280;5404;42.656;23.336;2023-05-21T11:49:45;94501.81;;;21.52;93.68
10706;BME280;5404;42.656;23.336;2023-05-21T11:52:11;94492.47;;;21.46;93.11
10706;BME280;5404;42.656;23.336;2023-05-21T11:54:45;94492.75;;;21.41;93.83
10706;BME280;5404;42.656;23.336;2023-05-21T11:57:12;94489.25;;;21.37;95.60
10706;BME280;5404;42.656;23.336;2023-05-21T11:59:43;94488.38;;;21.30;95.28
10706;BME280;5404;42.656;23.336;2023-05-21T12:02:14;94481.28;;;21.18;95.46
10706;BME280;5404;42.656;23.336;2023-05-21T12:04:44;94483.84;;;21.08;96.58
10706;BME280;5404;42.656;23.336;2023-05-21T12:07:11;94478.63;;;20.96;99.69
10706;BME280;5404;42.656;23.336;2023-05-21T12:09:41;94485.81;;;20.84;100.00
10706;BME280;5404;42.656;23.336;2023-05-21T12:12:08;94481.47;;;20.76;100.00
10706;BME280;5404;42.656;23.336;2023-05-21T12:14:34;94478.66;;;20.69;100.00
10706;BME280;5404;42.656;23.336;2023-05-21T12:17:02;94480.19;;;20.67;100.00
10706;BME280;5404;42.656;23.336;2023-05-21T12:19:30;94468.25;;;20.71;100.00
10706;BME280;5404;42.656;23.336;2023-05-21T12:21:56;94473.28;;;20.73;100.00
10706;BME280;5404;42.656;23.336;2023-05-21T12:24:24;94478.69;;;20.73;100.00
10706;BME280;5404;42.656;23.336;2023-05-21T12:26:49;94482.94;;;20.70;100.00
10706;BME280;5404;42.656;23.336;2023-05-21T12:29:16;94494.47;;;20.67;100.00
10706;BME280;5404;42.656;23.336;2023-05-21T12:31:48;94488.63;;;20.62;100.00
10706;BME280;5404;42.656;23.336;2023-05-21T12:34:14;94475.34;;;20.53;100.00
10706;BME280;5404;42.656;23.336;2023-05-21T12:36:43;94474.06;;;20.47;100.00
10706;BME280;5404;42.656;23.336;2023-05-21T12:39:14;94477.94;;;20.46;100.00
10706;BME280;5404;42.656;23.336;2023-05-21T12:41:40;94465.91;;;20.44;100.00
10706;BME280;5404;42.656;23.336;2023-05-21T12:44:05;94465.53;;;20.45;100.00
10706;BME280;5404;42.656;23.336;2023-05-21T12:46:33;94459.81;;;20.50;100.00
10706;BME280;5404;42.656;23.336;2023-05-21T12:48:58;94465.63;;;20.52;100.00
10706;BME280;5404;42.656;23.336;2023-05-21T12:51:24;94459.84;;;20.54;100.00
10706;BME280;5404;42.656;23.336;2023-05-21T12:53:50;94461.84;;;20.57;100.00
10706;BME280;5404;42.656;23.336;2023-05-21T12:56:15;94458.88;;;20.65;100.00
10706;BME280;5404;42.656;23.336;2023-05-21T12:58:41;94460.00;;;20.64;100.00
10706;BME280;5404;42.656;23.336;2023-05-21T13:01:08;94468.13;;;20.64;100.00
10706;BME280;5404;42.656;23.336;2023-05-21T13:03:34;94462.78;;;20.68;100.00
10706;BME280;5404;42.656;23.336;2023-05-21T13:06:00;94467.50;;;20.74;100.00
10706;BME280;5404;42.656;23.336;2023-05-21T13:08:26;94462.50;;;20.76;100.00
10706;BME280;5404;42.656;23.336;2023-05-21T13:10:51;94457.50;;;20.78;100.00
10706;BME280;5404;42.656;23.336;2023-05-21T13:13:17;94454.06;;;20.81;100.00
10706;BME280;5404;42.656;23.336;2023-05-21T13:15:42;94458.41;;;20.86;100.00
10706;BME280;5404;42.656;23.336;2023-05-21T13:18:08;94458.47;;;20.93;100.00
10706;BME280;5404;42.656;23.336;2023-05-21T13:20:33;94457.16;;;21.10;100.00